Time;durP1;ratioP1;P1;durP2;ratioP2;P2;SDS_P1;SDS_P2;PMS_P1;PMS_P2;Temp;Humidity;BMP_temperature;BMP_pressure;BME280_temperature;BME280_humidity;BME280_pressure;Samples;Min_cycle;Max_cycle;Signal;HPM_P1;HPM_P2
2021/04/07 00:00:19;;;;;;;6.33;2.07;;;4.90;99.90;;;;;;5071209;28;20217;-70
2021/04/07 00:02:46;;;;;;;5.83;2.90;;;4.90;99.90;;;;;;5068681;28;20210;-70
2021/04/07 00:05:14;;;;;;;8.87;2.83;;;4.90;99.90;;;;;;5070917;28;20263;-68
2021/04/07 00:07:42;;;;;;;5.77;2.03;;;4.90;99.90;;;;;;5070958;28;20210;-69
2021/04/07 00:10:11;;;;;;;7.60;2.10;;;4.90;99.90;;;;;;5070862;28;20210;-68
2021/04/07 00:12:39;;;;;;;4.47;1.77;;;4.90;99.90;;;;;;5071002;28;20213;-68
2021/04/07 00:15:08;;;;;;;4.93;2.10;;;4.90;99.90;;;;;;5070460;28;20693;-68
2021/04/07 00:17:35;;;;;;;4.23;1.90;;;4.90;99.90;;;;;;5070839;28;20202;-68
2021/04/07 00:20:01;;;;;;;2.63;2.10;;;4.80;99.90;;;;;;5069954;28;20614;-67
2021/04/07 00:22:28;;;;;;;5.07;2.07;;;4.80;99.90;;;;;;5070381;28;20202;-67
2021/04/07 00:24:54;;;;;;;4.77;1.10;;;4.80;99.90;;;;;;5070388;28;20213;-68
2021/04/07 00:27:26;;;;;;;3.87;1.63;;;4.80;99.90;;;;;;5070255;28;20198;-67
2021/04/07 00:29:53;;;;;;;2.73;1.30;;;4.70;99.90;;;;;;5069906;28;20307;-67
2021/04/07 00:32:20;;;;;;;5.70;1.43;;;4.70;99.90;;;;;;5070253;28;20202;-67
2021/04/07 00:34:47;;;;;;;3.17;1.50;;;4.60;99.90;;;;;;5070143;28;20210;-67
2021/04/07 00:37:14;;;;;;;2.03;1.10;;;4.70;99.90;;;;;;5070112;28;20213;-68
2021/04/07 00:39:41;;;;;;;6.50;1.90;;;4.60;99.90;;;;;;5071022;28;20214;-67
2021/04/07 00:42:08;;;;;;;2.87;1.37;;;4.60;99.90;;;;;;5070262;28;20221;-67
2021/04/07 00:44:35;;;;;;;2.10;1.47;;;4.70;99.90;;;;;;5070244;28;20202;-67
2021/04/07 00:47:02;;;;;;;5.43;1.50;;;4.60;99.90;;;;;;5070021;28;20224;-67
2021/04/07 00:49:29;;;;;;;6.70;1.93;;;4.50;99.90;;;;;;5069687;28;20657;-68
2021/04/07 00:51:55;;;;;;;1.93;1.47;;;4.50;99.90;;;;;;5070203;28;20210;-67
2021/04/07 00:54:23;;;;;;;4.43;1.40;;;4.50;99.90;;;;;;5070266;28;20260;-68
2021/04/07 00:56:50;;;;;;;3.83;1.20;;;4.50;99.90;;;;;;5069830;28;20218;-68
2021/04/07 00:59:18;;;;;;;2.90;1.47;;;4.50;99.90;;;;;;5074243;28;20206;-70
2021/04/07 01:01:45;;;;;;;3.43;1.50;;;4.50;99.90;;;;;;5074220;28;20208;-68
2021/04/07 01:04:13;;;;;;;2.17;1.77;;;4.60;99.90;;;;;;5074203;28;20692;-68
2021/04/07 01:06:42;;;;;;;3.97;1.70;;;4.70;99.90;;;;;;5074541;28;20271;-70
2021/04/07 01:09:09;;;;;;;7.10;1.33;;;4.70;99.90;;;;;;5074780;28;20242;-71
2021/04/07 01:11:36;;;;;;;2.47;1.40;;;4.90;99.90;;;;;;5073804;28;20548;-70
2021/04/07 01:14:03;;;;;;;4.87;1.50;;;4.90;99.90;;;;;;5073866;28;20205;-67
2021/04/07 01:16:30;;;;;;;2.27;1.27;;;4.90;99.90;;;;;;5073752;28;20611;-68
2021/04/07 01:18:57;;;;;;;6.73;1.90;;;4.90;99.90;;;;;;5073938;28;20202;-68
2021/04/07 01:21:24;;;;;;;3.83;1.50;;;4.90;99.90;;;;;;5074253;28;20271;-70
2021/04/07 01:23:52;;;;;;;2.73;1.40;;;4.90;99.90;;;;;;5073426;28;20202;-70
2021/04/07 01:26:18;;;;;;;1.67;1.37;;;4.90;99.90;;;;;;5073637;28;20202;-68
2021/04/07 01:28:45;;;;;;;4.23;2.33;;;4.90;99.90;;;;;;5073224;28;20831;-68
2021/04/07 01:31:12;;;;;;;2.17;1.60;;;5.00;99.90;;;;;;5073699;28;20234;-70
2021/04/07 01:33:38;;;;;;;3.53;2.13;;;4.90;99.90;;;;;;5074056;28;20555;-68
2021/04/07 01:36:05;;;;;;;2.07;1.60;;;5.10;99.90;;;;;;5073624;28;20602;-69
2021/04/07 01:38:32;;;;;;;6.43;1.73;;;4.90;99.90;;;;;;5073681;28;20210;-68
2021/04/07 01:41:00;;;;;;;5.53;2.07;;;4.80;99.90;;;;;;5059071;28;20217;-67
2021/04/07 01:43:27;;;;;;;7.10;2.00;;;4.90;99.90;;;;;;5073716;28;20209;-67
2021/04/07 01:45:56;;;;;;;5.53;2.37;;;5.10;99.90;;;;;;5072768;28;20205;-68
2021/04/07 01:48:24;;;;;;;2.33;1.70;;;5.00;99.90;;;;;;5073227;28;20230;-67
2021/04/07 01:50:51;;;;;;;3.93;2.03;;;5.00;99.90;;;;;;5073023;28;20216;-67
2021/04/07 01:53:19;;;;;;;3.03;2.07;;;4.80;99.90;;;;;;5073602;28;20206;-67
2021/04/07 01:55:46;;;;;;;2.60;1.70;;;4.80;99.90;;;;;;5072659;28;20242;-67
2021/04/07 01:58:13;;;;;;;1.37;1.20;;;4.90;99.90;;;;;;5073269;28;20252;-68
2021/04/07 02:00:40;;;;;;;2.90;1.87;;;5.10;99.90;;;;;;5073263;28;20210;-71
2021/04/07 02:03:06;;;;;;;2.80;1.63;;;5.20;99.90;;;;;;5073314;28;20209;-70
2021/04/07 02:05:33;;;;;;;1.80;1.33;;;5.30;99.90;;;;;;5073050;28;20689;-70
2021/04/07 02:08:00;;;;;;;2.63;1.87;;;5.40;99.90;;;;;;5072598;28;20205;-68
2021/04/07 02:10:27;;;;;;;3.73;2.00;;;5.40;99.90;;;;;;5071700;28;20674;-69
2021/04/07 02:12:54;;;;;;;1.97;1.67;;;5.40;99.90;;;;;;5072429;28;20648;-68
2021/04/07 02:15:22;;;;;;;4.30;2.20;;;5.40;99.90;;;;;;5072922;28;20210;-69
2021/04/07 02:17:49;;;;;;;2.53;1.80;;;5.20;99.90;;;;;;5072657;28;20206;-69
2021/04/07 02:20:17;;;;;;;3.20;1.87;;;5.20;99.90;;;;;;5072907;28;20268;-69
2021/04/07 02:22:44;;;;;;;2.67;1.50;;;5.00;99.90;;;;;;5072609;28;20209;-69
2021/04/07 02:25:12;;;;;;;3.47;1.93;;;5.00;99.90;;;;;;5072471;28;20670;-69
2021/04/07 02:27:38;;;;;;;3.37;1.63;;;5.00;99.90;;;;;;5073161;28;20206;-70
2021/04/07 02:30:07;;;;;;;2.07;1.70;;;5.10;99.90;;;;;;5072076;28;20256;-69
2021/04/07 02:32:34;;;;;;;6.03;2.03;;;4.90;99.90;;;;;;5072701;28;20678;-68
2021/04/07 02:35:01;;;;;;;4.30;1.90;;;4.90;99.90;;;;;;5072521;28;20351;-69
2021/04/07 02:37:27;;;;;;;5.40;2.77;;;4.90;99.90;;;;;;5072218;28;20210;-69
2021/04/07 02:39:54;;;;;;;3.07;2.23;;;5.10;99.90;;;;;;5072015;28;20210;-69
2021/04/07 02:42:22;;;;;;;2.50;1.77;;;5.20;99.90;;;;;;5072217;28;20206;-69
2021/04/07 02:44:49;;;;;;;1.80;1.53;;;5.30;99.90;;;;;;5072021;28;20210;-69
2021/04/07 02:47:15;;;;;;;2.10;1.87;;;5.30;99.90;;;;;;5072347;28;20218;-68
2021/04/07 02:49:43;;;;;;;5.00;1.90;;;5.10;99.90;;;;;;5072238;28;20230;-68
2021/04/07 02:52:09;;;;;;;1.83;1.67;;;4.90;99.90;;;;;;5072568;28;20571;-68
2021/04/07 02:54:36;;;;;;;3.03;2.20;;;4.90;99.90;;;;;;5066209;28;20211;-68
2021/04/07 02:57:05;;;;;;;2.07;1.33;;;4.60;99.90;;;;;;5064082;28;20206;-68
2021/04/07 02:59:32;;;;;;;3.27;2.17;;;4.60;99.90;;;;;;5072105;28;20210;-67
2021/04/07 03:01:58;;;;;;;4.17;1.77;;;4.60;99.90;;;;;;5071921;28;20256;-69
2021/04/07 03:04:24;;;;;;;3.27;1.80;;;4.70;99.90;;;;;;5072064;28;20279;-69
2021/04/07 03:06:52;;;;;;;3.40;1.80;;;4.80;99.90;;;;;;5071460;28;20689;-69
2021/04/07 03:09:18;;;;;;;6.67;1.53;;;4.80;99.90;;;;;;5071551;28;20287;-69
2021/04/07 03:11:45;;;;;;;4.73;1.80;;;4.90;99.90;;;;;;5071294;28;20682;-67
2021/04/07 03:14:11;;;;;;;3.50;1.83;;;4.80;99.90;;;;;;5071936;28;20213;-68
2021/04/07 03:16:38;;;;;;;2.43;2.23;;;4.50;99.90;;;;;;5071885;28;20221;-68
2021/04/07 03:19:04;;;;;;;4.37;1.70;;;4.40;99.90;;;;;;5071566;28;20210;-69
2021/04/07 03:21:31;;;;;;;1.83;1.50;;;4.30;99.90;;;;;;5071322;28;20214;-68
2021/04/07 03:23:58;;;;;;;4.00;1.77;;;4.30;99.90;;;;;;5071055;28;20206;-69
2021/04/07 03:26:24;;;;;;;2.97;1.63;;;4.30;99.90;;;;;;5071797;28;20279;-69
2021/04/07 03:28:51;;;;;;;3.93;2.27;;;4.30;99.90;;;;;;5070939;28;20298;-68
2021/04/07 03:31:17;;;;;;;3.50;1.63;;;4.30;99.90;;;;;;5071666;28;20206;-68
2021/04/07 03:33:44;;;;;;;4.30;2.00;;;4.20;99.90;;;;;;5070694;28;20662;-68
2021/04/07 03:36:11;;;;;;;2.60;1.97;;;4.20;99.90;;;;;;5071313;28;20209;-67
2021/04/07 03:38:37;;;;;;;2.83;1.63;;;4.20;99.90;;;;;;5071409;28;20299;-69
2021/04/07 03:41:05;;;;;;;6.33;2.60;;;4.10;99.90;;;;;;5071304;28;20255;-69
2021/04/07 03:43:31;;;;;;;4.73;2.40;;;4.20;99.90;;;;;;5071520;28;20210;-68
2021/04/07 03:45:59;;;;;;;3.97;1.90;;;4.20;99.90;;;;;;5070643;28;20573;-68
2021/04/07 03:48:28;;;;;;;4.40;1.83;;;4.10;99.90;;;;;;5071033;28;20233;-68
2021/04/07 03:50:55;;;;;;;4.90;1.87;;;4.00;99.90;;;;;;5070379;28;20198;-68
2021/04/07 03:53:22;;;;;;;3.87;1.50;;;3.90;99.90;;;;;;5071416;28;20205;-69
2021/04/07 03:55:51;;;;;;;2.60;1.73;;;4.10;99.90;;;;;;5070657;28;20206;-72
2021/04/07 03:58:19;;;;;;;4.80;2.17;;;4.00;99.90;;;;;;5071217;28;20198;-69
2021/04/07 04:00:46;;;;;;;4.57;1.87;;;4.00;99.90;;;;;;5070366;28;20217;-69
2021/04/07 04:03:12;;;;;;;5.87;2.17;;;3.90;99.90;;;;;;5070697;28;20206;-69
2021/04/07 04:05:39;;;;;;;3.47;2.37;;;3.80;99.90;;;;;;5071016;28;20221;-69
2021/04/07 04:08:07;;;;;;;4.57;2.13;;;3.90;99.90;;;;;;5070533;28;20289;-69
2021/04/07 04:10:34;;;;;;;2.27;1.60;;;3.80;99.90;;;;;;5070785;28;20210;-71
2021/04/07 04:13:01;;;;;;;5.00;1.73;;;3.80;99.90;;;;;;5070272;28;20283;-71
2021/04/07 04:15:28;;;;;;;5.67;2.10;;;3.60;99.90;;;;;;5070671;28;20225;-72
2021/04/07 04:17:55;;;;;;;5.00;2.23;;;3.60;99.90;;;;;;5070257;28;20582;-69
2021/04/07 04:20:21;;;;;;;3.43;2.00;;;3.60;99.90;;;;;;5070158;28;20206;-69
2021/04/07 04:22:48;;;;;;;5.50;1.77;;;3.70;99.90;;;;;;5070306;28;20206;-69
2021/04/07 04:25:16;;;;;;;6.70;2.27;;;3.70;99.90;;;;;;5070548;28;20209;-69
2021/04/07 04:27:43;;;;;;;5.13;2.07;;;3.40;99.90;;;;;;5070602;28;20260;-69
2021/04/07 04:30:11;;;;;;;5.80;1.73;;;3.30;99.90;;;;;;5070449;28;20785;-69
2021/04/07 04:32:39;;;;;;;6.70;2.10;;;3.50;99.90;;;;;;5070730;28;20214;-72
2021/04/07 04:35:07;;;;;;;2.97;1.97;;;3.40;99.90;;;;;;5070148;28;20203;-69
2021/04/07 04:37:34;;;;;;;5.87;1.60;;;3.20;99.90;;;;;;5070559;28;20266;-69
2021/04/07 04:40:00;;;;;;;3.30;2.03;;;3.30;99.90;;;;;;5070043;28;20674;-69
2021/04/07 04:42:27;;;;;;;4.00;2.10;;;3.40;99.90;;;;;;5070433;28;20202;-69
2021/04/07 04:44:53;;;;;;;2.03;1.27;;;3.50;99.90;;;;;;5070066;28;20206;-68
2021/04/07 04:47:20;;;;;;;4.93;2.37;;;3.50;99.90;;;;;;5070171;28;20625;-69
2021/04/07 04:49:47;;;;;;;3.27;1.80;;;3.50;99.90;;;;;;5069950;28;20230;-69
2021/04/07 04:52:14;;;;;;;4.33;1.60;;;3.50;99.90;;;;;;5070334;28;20278;-68
2021/04/07 04:54:40;;;;;;;4.00;2.90;;;3.30;99.90;;;;;;5070373;28;20206;-69
2021/04/07 04:57:07;;;;;;;4.50;2.67;;;3.30;99.90;;;;;;5070191;28;20217;-68
2021/04/07 04:59:33;;;;;;;3.87;2.47;;;3.20;99.90;;;;;;5069770;28;20670;-71
2021/04/07 05:02:00;;;;;;;4.20;2.37;;;3.20;99.90;;;;;;5069622;28;20232;-68
2021/04/07 05:04:26;;;;;;;2.77;2.43;;;3.20;99.90;;;;;;5069861;28;20202;-69
2021/04/07 05:06:54;;;;;;;4.03;2.37;;;3.30;99.90;;;;;;5069950;28;20202;-71
2021/04/07 05:09:21;;;;;;;3.17;2.30;;;3.20;99.90;;;;;;5069722;28;20767;-68
2021/04/07 05:11:47;;;;;;;6.80;2.07;;;3.20;99.90;;;;;;5069720;28;20202;-68
2021/04/07 05:14:14;;;;;;;2.33;2.00;;;3.30;99.90;;;;;;5069931;28;20230;-69
2021/04/07 05:16:40;;;;;;;3.83;2.43;;;3.30;99.90;;;;;;5069990;28;20206;-68
2021/04/07 05:19:07;;;;;;;2.63;1.90;;;3.00;99.90;;;;;;5070243;28;20206;-68
2021/04/07 05:21:33;;;;;;;5.30;1.77;;;3.10;99.90;;;;;;5070106;28;20207;-71
2021/04/07 05:24:01;;;;;;;2.83;1.87;;;3.10;99.90;;;;;;5069465;28;20206;-70
2021/04/07 05:26:27;;;;;;;4.50;1.80;;;3.20;99.90;;;;;;5069907;28;20583;-68
2021/04/07 05:28:53;;;;;;;5.50;2.00;;;3.20;99.90;;;;;;5069079;28;20230;-69
2021/04/07 05:31:20;;;;;;;9.30;2.80;;;3.10;99.90;;;;;;5068289;28;20206;-68
2021/04/07 05:33:46;;;;;;;2.87;2.27;;;3.20;99.90;;;;;;5069343;28;20210;-68
2021/04/07 05:36:14;;;;;;;4.47;2.80;;;3.10;99.90;;;;;;5070065;28;20203;-68
2021/04/07 05:38:41;;;;;;;5.87;2.80;;;3.10;99.90;;;;;;5068904;28;20210;-68
2021/04/07 05:41:09;;;;;;;30.90;16.60;;;3.00;99.90;;;;;;5068430;28;20354;-69
2021/04/07 05:43:38;;;;;;;42.33;20.20;;;3.00;99.90;;;;;;5067250;28;20674;-69
2021/04/07 05:46:06;;;;;;;34.37;18.50;;;3.00;99.90;;;;;;5072128;28;20202;-69
2021/04/07 05:48:32;;;;;;;17.17;9.13;;;3.10;99.90;;;;;;5072971;28;20241;-69
2021/04/07 05:51:00;;;;;;;31.93;17.53;;;3.10;99.90;;;;;;5070176;28;20211;-70
2021/04/07 05:53:26;;;;;;;31.20;11.63;;;3.00;99.90;;;;;;5064938;28;20703;-71
2021/04/07 05:55:55;;;;;;;32.47;10.17;;;3.00;99.90;;;;;;5072580;28;20209;-70
2021/04/07 05:58:24;;;;;;;27.90;4.67;;;2.90;99.90;;;;;;5069585;28;20623;-70
2021/04/07 06:00:51;;;;;;;21.07;5.37;;;2.90;99.90;;;;;;5069839;28;20209;-70
2021/04/07 06:03:19;;;;;;;10.00;4.43;;;2.90;99.90;;;;;;5073425;28;20269;-71
2021/04/07 06:05:47;;;;;;;13.13;3.37;;;3.00;99.90;;;;;;5072628;28;20264;-73
2021/04/07 06:08:15;;;;;;;15.73;3.80;;;3.10;99.90;;;;;;5061076;28;20203;-69
2021/04/07 06:10:43;;;;;;;20.97;3.80;;;3.00;99.90;;;;;;5069417;28;20202;-71
2021/04/07 06:13:11;;;;;;;24.13;5.20;;;3.00;99.90;;;;;;5070083;28;20210;-70
2021/04/07 06:15:39;;;;;;;19.13;4.57;;;3.20;99.90;;;;;;5069668;28;20214;-72
2021/04/07 06:18:07;;;;;;;9.43;4.27;;;3.10;99.90;;;;;;5071393;28;20256;-74
2021/04/07 06:20:35;;;;;;;15.07;3.80;;;3.10;99.90;;;;;;5061267;28;20279;-73
2021/04/07 06:23:03;;;;;;;16.10;3.60;;;3.20;99.90;;;;;;5071017;28;21632;-73
2021/04/07 06:25:29;;;;;;;18.77;4.67;;;3.20;99.90;;;;;;5068932;28;20216;-73
2021/04/07 06:27:58;;;;;;;19.03;4.50;;;3.20;99.90;;;;;;5069299;28;20710;-73
2021/04/07 06:30:41;;;;;;;17.60;3.13;;;3.40;99.90;;;;;;5071055;28;20237;-72
2021/04/07 06:33:09;;;;;;;12.30;3.90;;;3.50;99.90;;;;;;5072491;28;20314;-72
2021/04/07 06:35:36;;;;;;;20.43;4.13;;;3.50;99.90;;;;;;5072776;28;20681;-75
2021/04/07 06:38:02;;;;;;;11.00;3.57;;;3.60;99.90;;;;;;5072402;28;20210;-76
2021/04/07 06:40:30;;;;;;;12.97;3.43;;;3.60;99.90;;;;;;5072473;28;20210;-72
2021/04/07 06:42:58;;;;;;;12.57;2.77;;;3.70;99.90;;;;;;5072416;28;20573;-72
2021/04/07 06:45:25;;;;;;;15.60;3.80;;;3.80;99.90;;;;;;5072243;28;20251;-74
2021/04/07 06:47:53;;;;;;;13.90;3.23;;;3.90;99.90;;;;;;5071746;28;20213;-70
2021/04/07 06:50:20;;;;;;;10.33;3.13;;;4.00;99.90;;;;;;5072213;28;20234;-70
2021/04/07 06:52:49;;;;;;;15.47;4.13;;;4.10;99.90;;;;;;5071721;28;20206;-73
2021/04/07 06:55:17;;;;;;;6.33;2.80;;;4.30;99.90;;;;;;5072253;28;20263;-74
2021/04/07 06:57:44;;;;;;;6.53;2.90;;;4.40;99.90;;;;;;5067257;28;20607;-72
2021/04/07 07:00:12;;;;;;;11.00;3.53;;;4.50;99.90;;;;;;5062315;28;20665;-72
2021/04/07 07:02:39;;;;;;;2.60;2.37;;;4.40;99.90;;;;;;5072353;28;20209;-75
2021/04/07 07:05:07;;;;;;;7.23;3.03;;;4.60;99.90;;;;;;5071832;28;20298;-73
2021/04/07 07:07:34;;;;;;;13.23;5.13;;;4.60;99.90;;;;;;5069806;28;20211;-71
2021/04/07 07:10:01;;;;;;;8.43;2.30;;;4.60;99.90;;;;;;5071248;28;20238;-74
2021/04/07 07:12:31;;;;;;;7.57;3.00;;;4.80;99.90;;;;;;5072128;28;20574;-73
2021/04/07 07:15:02;;;;;;;8.20;3.20;;;5.10;99.90;;;;;;5071054;28;20275;-76
2021/04/07 07:17:30;;;;;;;6.77;3.43;;;5.00;99.90;;;;;;5071834;28;20244;-73
2021/04/07 07:19:56;;;;;;;6.47;2.77;;;5.00;99.90;;;;;;5071330;28;20558;-74
2021/04/07 07:22:24;;;;;;;9.83;2.77;;;5.10;99.90;;;;;;5072004;28;20206;-73
2021/04/07 07:24:57;;;;;;;9.13;2.80;;;5.20;99.90;;;;;;5071350;28;20206;-72
2021/04/07 07:27:39;;;;;;;4.87;3.50;;;5.30;99.90;;;;;;5071430;28;20209;-70
2021/04/07 07:30:07;;;;;;;6.60;2.73;;;5.30;99.90;;;;;;5071211;28;20291;-71
2021/04/07 07:32:37;;;;;;;4.73;3.47;;;5.40;99.90;;;;;;5071686;28;20260;-72
2021/04/07 07:35:12;;;;;;;5.27;2.73;;;5.50;99.90;;;;;;5069532;28;20237;-72
2021/04/07 07:37:39;;;;;;;4.43;3.37;;;5.50;99.90;;;;;;5069707;28;20198;-74
2021/04/07 07:40:19;;;;;;;5.83;3.20;;;5.70;99.90;;;;;;5069342;28;20586;-72
2021/04/07 07:42:47;;;;;;;8.03;3.27;;;5.80;99.90;;;;;;5061412;28;20198;-71
2021/04/07 07:45:15;;;;;;;5.37;3.53;;;5.90;99.90;;;;;;5071357;28;20204;-72
2021/04/07 07:47:44;;;;;;;8.73;4.07;;;6.10;99.90;;;;;;5069755;28;20218;-73
2021/04/07 07:50:12;;;;;;;8.53;3.50;;;6.10;99.90;;;;;;5069351;28;20320;-69
2021/04/07 07:52:39;;;;;;;8.40;3.40;;;6.20;99.90;;;;;;5068032;28;20669;-72
2021/04/07 07:55:16;;;;;;;4.20;2.43;;;6.30;99.90;;;;;;5065436;28;20210;-73
2021/04/07 07:57:52;;;;;;;7.43;3.10;;;6.30;99.90;;;;;;5065089;28;20206;-74
2021/04/07 08:00:20;;;;;;;5.23;3.10;;;6.50;99.90;;;;;;5070179;28;20216;-73
2021/04/07 08:02:46;;;;;;;4.93;3.17;;;6.50;99.90;;;;;;5066924;28;20202;-72
2021/04/07 08:05:16;;;;;;;4.13;3.27;;;6.60;99.90;;;;;;5070316;28;20580;-71
2021/04/07 08:07:43;;;;;;;6.10;3.57;;;6.80;99.90;;;;;;5068815;28;20297;-74
2021/04/07 08:10:11;;;;;;;4.93;2.53;;;6.90;99.90;;;;;;5066377;28;20225;-72
2021/04/07 08:12:39;;;;;;;5.07;2.90;;;6.90;99.90;;;;;;5070958;28;20217;-71
2021/04/07 08:15:08;;;;;;;6.70;4.00;;;7.10;99.90;;;;;;5069317;28;20206;-72
2021/04/07 08:17:35;;;;;;;6.53;3.53;;;7.20;99.90;;;;;;5070399;28;20693;-71
2021/04/07 08:20:03;;;;;;;6.70;2.90;;;7.20;99.90;;;;;;5069910;28;20202;-72
2021/04/07 08:22:30;;;;;;;6.83;3.03;;;7.50;99.90;;;;;;5070761;28;20279;-75
2021/04/07 08:24:57;;;;;;;4.97;2.50;;;7.70;99.90;;;;;;5069255;28;20218;-74
2021/04/07 08:27:26;;;;;;;5.70;2.27;;;7.60;99.90;;;;;;5068876;28;20275;-71
2021/04/07 08:29:53;;;;;;;3.83;2.70;;;7.80;99.90;;;;;;5067424;28;20780;-72
2021/04/07 08:32:20;;;;;;;6.23;3.27;;;8.40;99.90;;;;;;5065643;28;20198;-73
2021/04/07 08:34:48;;;;;;;3.60;2.60;;;7.90;99.90;;;;;;5068123;28;20213;-72
2021/04/07 08:37:25;;;;;;;6.03;2.30;;;;;;;;;;5069277;28;20210;-72
2021/04/07 08:39:52;;;;;;;6.13;3.90;;;8.70;99.90;;;;;;5063894;28;20206;-78
2021/04/07 08:42:18;;;;;;;4.77;2.80;;;8.70;99.90;;;;;;5068634;28;20221;-75
2021/04/07 08:44:46;;;;;;;8.83;2.97;;;8.50;99.90;;;;;;5067153;28;20198;-79
2021/04/07 08:47:28;;;;;;;11.93;3.07;;;9.20;99.90;;;;;;5069861;28;20220;-74
2021/04/07 08:50:02;;;;;;;7.53;3.10;;;10.70;99.90;;;;;;5068504;28;20782;-77
2021/04/07 08:52:28;;;;;;;5.10;3.10;;;10.30;99.90;;;;;;5069553;28;20216;-75
2021/04/07 08:54:59;;;;;;;9.90;4.33;;;9.80;99.90;;;;;;5069298;28;20206;-76
2021/04/07 08:57:27;;;;;;;11.77;3.30;;;10.00;99.90;;;;;;5068143;28;20205;-72
2021/04/07 08:59:54;;;;;;;5.57;2.80;;;10.00;99.90;;;;;;5067047;28;20581;-69
2021/04/07 09:02:21;;;;;;;4.07;2.50;;;10.20;99.90;;;;;;5067967;28;20210;-74
2021/04/07 09:04:59;;;;;;;6.53;3.37;;;10.50;99.90;;;;;;5067215;28;20697;-73
2021/04/07 09:07:36;;;;;;;3.37;2.20;;;10.60;99.90;;;;;;5069891;28;20209;-75
2021/04/07 09:10:12;;;;;;;7.30;2.00;;;10.70;99.90;;;;;;5067503;28;20767;-76
2021/04/07 09:12:39;;;;;;;3.27;2.03;;;10.40;99.90;;;;;;5065931;28;20202;-70
2021/04/07 09:15:17;;;;;;;12.53;2.53;;;10.60;99.90;;;;;;5067131;28;20202;-77
2021/04/07 09:17:46;;;;;;;3.70;2.83;;;11.80;99.90;;;;;;5072230;28;20588;-71
2021/04/07 09:20:36;;;;;;;9.27;3.30;;;12.60;99.90;;;;;;5064046;28;20264;-72
2021/04/07 09:23:15;;;;;;;2.83;2.10;;;10.80;99.90;;;;;;5068704;28;20205;-71
2021/04/07 09:25:47;;;;;;;6.63;2.20;;;12.70;99.90;;;;;;5069814;28;20206;-69
2021/04/07 09:28:14;;;;;;;3.97;2.57;;;12.90;99.90;;;;;;5071118;28;20209;-70
2021/04/07 09:30:45;;;;;;;2.93;2.07;;;11.70;99.90;;;;;;5072411;28;20237;-77
2021/04/07 09:33:15;;;;;;;3.35;1.92;;;11.70;99.90;;;;;;5063631;28;20218;-69
2021/04/07 09:35:56;;;;;;;7.03;3.30;;;11.70;99.90;;;;;;5072831;28;20217;-71
2021/04/07 09:38:23;;;;;;;4.15;2.25;;;11.50;99.90;;;;;;5071621;28;20215;-73
2021/04/07 09:40:49;;;;;;;5.50;2.40;;;11.60;99.90;;;;;;5072999;28;20263;-74
2021/04/07 09:43:21;;;;;;;3.53;2.30;;;12.10;99.90;;;;;;5073449;28;20202;-71
2021/04/07 09:45:50;;;;;;;3.55;2.03;;;12.30;99.90;;;;;;5072128;28;20220;-77
2021/04/07 09:48:17;;;;;;;3.83;2.63;;;12.30;99.90;;;;;;5073186;28;20259;-77
2021/04/07 09:50:44;;;;;;;6.32;2.40;;;14.60;99.90;;;;;;5072808;28;20724;-71
2021/04/07 09:53:10;;;;;;;4.43;2.80;;;16.50;99.90;;;;;;5071831;28;20564;-75
2021/04/07 09:55:37;;;;;;;3.13;1.80;;;17.00;99.90;;;;;;5069171;28;20210;-81
2021/04/07 09:58:04;;;;;;;3.83;2.25;;;18.40;99.90;;;;;;5072931;28;20263;-78
2021/04/07 10:00:33;;;;;;;2.95;2.25;;;20.50;99.90;;;;;;5070572;28;20210;-79
2021/04/07 10:03:02;;;;;;;2.50;1.95;;;20.10;99.90;;;;;;5072003;28;20202;-78
2021/04/07 10:05:31;;;;;;;2.88;1.35;;;19.50;99.90;;;;;;5068763;28;20579;-79
2021/04/07 10:08:16;;;;;;;3.85;1.98;;;19.60;99.90;;;;;;5072351;28;20252;-77
2021/04/07 10:10:43;;;;;;;5.78;3.22;;;19.20;99.90;;;;;;5072418;28;20234;-77
2021/04/07 10:13:10;;;;;;;3.60;2.63;;;19.80;99.90;;;;;;5073532;28;20233;-72
2021/04/07 10:15:37;;;;;;;4.80;2.25;;;20.10;99.90;;;;;;5065717;28;20203;-80
2021/04/07 10:18:09;;;;;;;3.53;2.75;;;19.70;99.90;;;;;;5071574;28;20206;-72
2021/04/07 10:20:36;;;;;;;6.88;2.47;;;20.30;99.90;;;;;;5064912;28;20249;-79
2021/04/07 10:23:08;;;;;;;3.00;1.85;;;18.90;99.90;;;;;;5072518;28;20198;-77
2021/04/07 10:25:35;;;;;;;4.72;2.50;;;16.90;99.90;;;;;;5072536;28;20205;-78
2021/04/07 10:28:02;;;;;;;4.20;3.42;;;15.60;99.90;;;;;;5072217;28;20207;-78
2021/04/07 10:30:35;;;;;;;2.72;2.50;;;18.10;99.90;;;;;;5071737;28;20230;-80
2021/04/07 10:33:03;;;;;;;3.88;2.15;;;18.80;99.90;;;;;;5072431;28;20206;-82
2021/04/07 10:35:31;;;;;;;2.75;1.95;;;14.70;99.90;;;;;;5072793;28;20210;-77
2021/04/07 10:38:02;;;;;;;2.60;1.90;;;12.60;99.90;;;;;;5071841;28;20678;-78
2021/04/07 10:40:31;;;;;;;3.88;2.08;;;12.10;99.90;;;;;;5070713;28;20211;-79
2021/04/07 10:42:58;;;;;;;4.45;2.15;;;11.90;99.90;;;;;;5072375;28;20210;-78
2021/04/07 10:45:27;;;;;;;4.35;2.05;;;11.80;99.90;;;;;;5071425;28;20202;-76
2021/04/07 10:48:02;;;;;;;2.75;2.10;;;11.40;99.90;;;;;;5071648;28;20217;-77
2021/04/07 10:50:32;;;;;;;3.47;2.25;;;11.20;99.90;;;;;;5070151;28;20225;-76
2021/04/07 10:53:00;;;;;;;3.15;2.05;;;11.20;99.90;;;;;;5072035;28;20206;-75
2021/04/07 10:55:29;;;;;;;3.38;1.80;;;11.20;99.90;;;;;;5074466;28;20214;-73
2021/04/07 10:57:57;;;;;;;4.03;1.80;;;11.60;99.90;;;;;;5068994;28;20558;-78
2021/04/07 11:00:29;;;;;;;3.87;1.70;;;11.70;99.90;;;;;;5070477;28;20202;-76
2021/04/07 11:02:56;;;;;;;2.93;1.73;;;11.50;99.90;;;;;;5066858;28;20203;-79
2021/04/07 11:05:25;;;;;;;5.53;1.60;;;11.40;99.90;;;;;;5071305;28;20210;-75
2021/04/07 11:08:03;;;;;;;2.20;1.13;;;10.90;99.90;;;;;;5068172;28;20221;-80
2021/04/07 11:10:36;;;;;;;2.30;1.10;;;11.70;99.90;;;;;;5065344;28;20287;-77
2021/04/07 11:13:04;;;;;;;3.83;2.00;;;11.60;99.90;;;;;;5065030;28;20206;-71
2021/04/07 11:15:31;;;;;;;3.43;1.60;;;11.70;99.90;;;;;;5063263;28;20221;-76
2021/04/07 11:17:57;;;;;;;4.90;1.60;;;;;;;;;;5070323;28;20260;-77
2021/04/07 11:20:25;;;;;;;3.87;1.87;;;11.20;99.90;;;;;;5068531;28;20221;-82
2021/04/07 11:22:52;;;;;;;2.13;1.70;;;11.30;99.90;;;;;;5070305;28;20210;-79
2021/04/07 11:25:20;;;;;;;2.20;1.47;;;11.30;99.90;;;;;;5070116;28;20280;-80
2021/04/07 11:27:47;;;;;;;4.43;2.10;;;11.80;99.90;;;;;;5071252;28;20207;-83
2021/04/07 11:30:14;;;;;;;8.73;1.87;;;11.40;99.90;;;;;;5067944;28;20237;-80
2021/04/07 11:32:46;;;;;;;3.33;1.80;;;10.70;99.90;;;;;;5071228;28;20591;-71
2021/04/07 11:35:20;;;;;;;2.63;1.40;;;10.30;99.90;;;;;;5071263;28;20205;-75
2021/04/07 11:37:51;;;;;;;1.83;1.60;;;10.60;99.90;;;;;;5070854;28;20194;-81
2021/04/07 11:40:35;;;;;;;2.20;1.30;;;11.20;99.90;;;;;;5070218;28;20696;-79
2021/04/07 11:43:05;;;;;;;2.10;1.47;;;11.30;99.90;;;;;;5062626;28;20202;-75
2021/04/07 11:45:31;;;;;;;2.13;1.63;;;11.20;99.90;;;;;;5066576;28;20248;-79
2021/04/07 11:47:58;;;;;;;3.57;1.87;;;11.50;99.90;;;;;;5070592;28;20210;-77
2021/04/07 11:50:25;;;;;;;3.70;2.07;;;11.00;99.90;;;;;;5068167;28;20237;-79
2021/04/07 11:52:51;;;;;;;3.70;1.87;;;11.10;99.90;;;;;;5065417;28;20209;-78
2021/04/07 11:55:19;;;;;;;3.43;1.20;;;11.50;99.90;;;;;;5069643;28;20206;-77
2021/04/07 11:57:46;;;;;;;3.67;1.33;;;11.30;99.90;;;;;;5069702;28;20198;-79
2021/04/07 12:00:14;;;;;;;2.50;1.30;;;11.60;99.90;;;;;;5070820;28;20221;-75
2021/04/07 12:02:46;;;;;;;4.53;2.37;;;12.00;99.90;;;;;;5070557;28;20599;-74
2021/04/07 12:05:15;;;;;;;3.77;1.60;;;10.90;99.90;;;;;;5071089;28;20213;-78
2021/04/07 12:07:41;;;;;;;6.00;1.70;;;11.10;99.90;;;;;;5070853;28;20218;-74
2021/04/07 12:10:09;;;;;;;1.63;1.53;;;11.10;99.90;;;;;;5067098;28;20594;-81
2021/04/07 12:12:37;;;;;;;1.83;1.33;;;11.30;99.90;;;;;;5061301;28;20210;-80
2021/04/07 12:15:04;;;;;;;2.73;1.57;;;11.90;99.90;;;;;;5068948;28;20230;-80
2021/04/07 12:17:30;;;;;;;3.00;1.10;;;11.70;99.90;;;;;;5065837;28;20537;-83
2021/04/07 12:19:57;;;;;;;4.67;2.03;;;11.70;99.90;;;;;;5064856;28;20206;-81
2021/04/07 12:22:23;;;;;;;2.83;1.83;;;11.70;99.90;;;;;;5068136;28;20259;-84
2021/04/07 12:24:51;;;;;;;5.20;1.90;;;12.00;99.90;;;;;;5070215;28;20665;-76
2021/04/07 12:27:18;;;;;;;6.03;2.40;;;11.90;99.90;;;;;;5069241;28;20244;-84
2021/04/07 12:29:45;;;;;;;4.50;2.47;;;11.90;99.90;;;;;;5070234;28;20275;-79
2021/04/07 12:32:12;;;;;;;3.27;2.00;;;12.00;99.90;;;;;;5070307;28;20264;-81
2021/04/07 12:34:38;;;;;;;2.90;2.30;;;11.90;99.90;;;;;;5070153;28;20207;-81
2021/04/07 12:37:05;;;;;;;3.47;2.30;;;12.00;99.90;;;;;;5068808;28;20868;-80
2021/04/07 12:39:34;;;;;;;3.47;2.00;;;12.00;99.90;;;;;;5061776;28;20214;-85
2021/04/07 12:42:01;;;;;;;5.27;2.10;;;11.40;99.90;;;;;;5069747;28;20666;-81
2021/04/07 12:44:27;;;;;;;4.93;2.47;;;11.20;99.90;;;;;;5068292;28;20202;-82
2021/04/07 12:46:55;;;;;;;8.97;3.37;;;11.80;99.90;;;;;;5067735;28;20213;-79
2021/04/07 12:49:21;;;;;;;3.63;2.03;;;11.80;99.90;;;;;;5064577;28;20239;-84
2021/04/07 12:51:48;;;;;;;3.10;2.60;;;11.80;99.90;;;;;;5066875;28;20255;-81
2021/04/07 12:54:14;;;;;;;4.63;2.07;;;12.00;99.90;;;;;;5064251;28;20205;-84
2021/04/07 12:56:41;;;;;;;2.90;2.60;;;11.90;99.90;;;;;;5070603;28;20210;-75